Aviation Digital Data Service (ADDS)

Output produced by METARs form (0551 UTC 21 April 2018)
found at http://aviationweather.gov/adds/metars/
 
METAR text: KSAC 210353Z 21008KT 10SM CLR 17/10 A3008 RMK AO2 SLP185 T01720100
Conditions at: KSAC (SACRAMENTO , CA, US) observed 0353 UTC 21 April 2018
Temperature: 17.2°C (63°F)
Dewpoint: 10.0°C (50°F) [RH = 63%]
Pressure (altimeter): 30.08 inches Hg (1018.7 mb)
[Sea-level pressure: 1018.5 mb]
Winds: from the SSW (210 degrees) at 9 MPH (8 knots; 4.2 m/s)
Visibility: 10 or more miles (16+ km)
Ceiling: at least 12,000 feet AGL
Clouds: sky clear below 12,000 feet AGL
Weather: no significant weather observed at this time

Forecast for: KSAC (SACRAMENTO , CA, US)
Text: KSAC 210520Z 2106/2206 21008KT P6SM SKC
Forecast period: 0600 to 0700 UTC 21 April 2018
Forecast type: FROM: standard forecast or significant change
Winds: from the SSW (210 degrees) at 9 MPH (8 knots; 4.2 m/s)
Visibility: 6 or more miles (10+ km)
Clouds: clear skies
Weather: no significant weather forecast for this period
Forecast for: KSAC (SACRAMENTO , CA, US)
Text: KSAC 210520Z 2106/2206 21008KT P6SM SKC
Forecast period: 0600 to 0700 UTC 21 April 2018
Forecast type: FROM: standard forecast or significant change
Winds: from the SSW (210 degrees) at 9 MPH (8 knots; 4.2 m/s)
Visibility: 6 or more miles (10+ km)
Clouds: clear skies
Weather: no significant weather forecast for this period
Forecast for: KSAC (SACRAMENTO , CA, US)
Text: KSAC 210520Z 2106/2206 21008KT P6SM SKC
Forecast period: 0700 to 1500 UTC 21 April 2018
Forecast type: FROM: standard forecast or significant change
Winds: from the S (180 degrees) at 5 MPH (4 knots; 2.1 m/s)
Visibility: 6 or more miles (10+ km)
Clouds: clear skies
Weather: no significant weather forecast for this period
Forecast for: KSAC (SACRAMENTO , CA, US)
Text: KSAC 210520Z 2106/2206 21008KT P6SM SKC
Forecast period: 0700 to 1500 UTC 21 April 2018
Forecast type: FROM: standard forecast or significant change
Winds: from the S (180 degrees) at 5 MPH (4 knots; 2.1 m/s)
Visibility: 6 or more miles (10+ km)
Clouds: clear skies
Weather: no significant weather forecast for this period
Forecast for: KSAC (SACRAMENTO , CA, US)
Text: KSAC 210520Z 2106/2206 21008KT P6SM SKC
Forecast period: 1500 UTC 21 April 2018 to 0600 UTC 22 April 2018
Forecast type: FROM: standard forecast or significant change
Winds: from the NW (320 degrees) at 6 MPH (5 knots; 2.6 m/s)
Visibility: 6 or more miles (10+ km)
Clouds: clear skies
Weather: no significant weather forecast for this period
Forecast for: KSAC (SACRAMENTO , CA, US)
Text: KSAC 210520Z 2106/2206 21008KT P6SM SKC
Forecast period: 1500 UTC 21 April 2018 to 0600 UTC 22 April 2018
Forecast type: FROM: standard forecast or significant change
Winds: from the NW (320 degrees) at 6 MPH (5 knots; 2.6 m/s)
Visibility: 6 or more miles (10+ km)
Clouds: clear skies
Weather: no significant weather forecast for this period